MFX weather

Méribel Altiport
Auvergne-Rhône-Alpes, France

Public forecast

Using degrees Celsius for public forecast. Weather courtesy of forecast.io.

Closest aviation weather report (METAR) to Méribel Altiport

Closest report is Chambéry-Savoie Airport, 32.5 nm (60.1 km) WNW. Retrieved 2020/08/04 04:30 UTC (0 seconds ago):

LFLB 040430Z AUTO VRB02KT CAVOK 14/13 Q1014 NOSIG

Closest aviation forecast (TAF) to Méribel Altiport

Closest forecast is Chambéry-Savoie Airport, 32.5 nm (60.1 km) WNW. Retrieved 2020-08-04 00:21 UTC (4 hours ago):

TAF LFLB 032300Z 0400/0424 36005KT 9999 BKN070 PROB40 TEMPO 0400/0404 5000 SHRA SCT030CB PROB30 TEMPO 0400/0403 TSRA BECMG 0410/0412 36010KT BECMG 0415/0417 CAVOK TEMPO 0412/0418 36015KT